Flight Track Log - Related Links

Times and Time Zones

All times are in EDT time to prevent confusion due to time zone crossing. See the KAL1335 flight status page for this flight to view local times or setup timezone preferences in your user account.

Time Position Orientation Groundspeed Altitude Reporting Facility
EDT Latitude Longitude Course Direction KTS MPH feet Rate Location/Type
Tue 12:30:36 AM 37.4950 126.8670 151° Southeast 203 234 4,400  Level FlightAware ADS-B
Tue 12:30:51 AM 37.4810 126.8740 158° South 223 257 4,700 1,902 Climbing FlightAware ADS-B
Tue 12:31:17 AM 37.4560 126.8840 162° South 237 273 5,700 2,049 Climbing FlightAware ADS-B
Tue 12:31:32 AM 37.4410 126.8900 162° South 236 272 6,100 682 Climbing FlightAware ADS-B
Tue 12:32:01 AM 37.4060 126.9040 162° South 239 275 6,200 218 Climbing FlightAware ADS-B
Tue 12:32:27 AM 37.3780 126.9130 166° South 245 282 6,300 585 Climbing FlightAware ADS-B
Tue 12:32:42 AM 37.3660 126.9160 169° South 250 288 6,600 2,727 Climbing FlightAware ADS-B
Tue 12:33:11 AM 37.3310 126.9240 170° South 245 282 8,300 1,759 Climbing FlightAware ADS-B
Tue 12:33:40 AM 37.3030 126.9310 169° South 245 282 8,300 1,474 Level FlightAware ADS-B
Tue 12:34:08 AM 37.2690 126.9390 169° South 259 298 9,700 2,100 Climbing FlightAware ADS-B
Tue 12:34:20 AM 37.2570 126.9420 169° South 259 298 9,700  Level FlightAware ADS-B
Tue 12:34:45 AM 37.2320 126.9480 169° South 259 298 9,700  Level FlightAware ADS-B
Tue 12:37:00 AM 37.0922 126.9882 167° South  Level Estimated
Tue 12:38:00 AM 37.0300 127.0060 167° South  Level Estimated
Tue 12:39:00 AM 36.9679 127.0238 167° South  Level Estimated
Tue 12:40:00 AM 36.9058 127.0415 167° South  Level Estimated
Tue 12:41:00 AM 36.8436 127.0592 167° South  Level Estimated
Tue 12:42:00 AM 36.7815 127.0769 167° South  Level Estimated
Tue 12:43:00 AM 36.7193 127.0946 167° South  Level Estimated
Tue 12:44:00 AM 36.6572 127.1122 167° South  Level Estimated
Tue 12:45:00 AM 36.5950 127.1298 167° South  Level Estimated
Tue 12:46:00 AM 36.5328 127.1474 167° South  Level Estimated
Tue 12:47:00 AM 36.4707 127.1649 167° South  Level Estimated
Tue 12:48:00 AM 36.4085 127.1825 167° South  Level Estimated
Tue 12:49:00 AM 36.3463 127.2000 167° South  Level Estimated
Tue 12:50:00 AM 36.2842 127.2174 167° South  Level Estimated
Tue 12:51:00 AM 36.2220 127.2348 167° South  Level Estimated
Tue 12:52:00 AM 36.1598 127.2523 167° South  Level Estimated
Tue 12:53:00 AM 36.0976 127.2696 167° South  Level Estimated
Tue 12:54:00 AM 36.0354 127.2870 167° South  Level Estimated
Tue 12:55:00 AM 35.9733 127.3043 167° South  Level Estimated
Tue 12:56:00 AM 35.9111 127.3216 167° South  Level Estimated
Tue 12:57:00 AM 35.8489 127.3389 167° South  Level Estimated
Tue 12:58:00 AM 35.7867 127.3561 167° South  Level Estimated
Tue 12:59:00 AM 35.7245 127.3734 167° South  Level Estimated
Tue 01:00:00 AM 35.6623 127.3905 167° South  Level Estimated
Tue 01:01:00 AM 35.6001 127.4077 167° South  Level Estimated
Tue 01:02:00 AM 35.5379 127.4248 167° South  Level Estimated
Tue 01:03:00 AM 35.4757 127.4419 167° South  Level Estimated
Tue 01:04:00 AM 35.4135 127.4590 167° South  Level Estimated
Tue 01:05:00 AM 35.3513 127.4761 167° South  Level Estimated
Tue 01:06:00 AM 35.2891 127.4931 167° South  Level Estimated
Tue 01:07:00 AM 35.2268 127.5101 167° South  Level Estimated
Tue 01:08:00 AM 35.1646 127.5271 167° South  Level Estimated
Tue 01:09:00 AM 35.1024 127.5441 167° South  Level Estimated
Tue 01:10:00 AM 35.0402 127.5610 167° South  Level Estimated
Tue 01:11:00 AM 34.9765 127.5783 167° South  Level Estimated
Tue 01:12:00 AM 34.9128 127.5956 167° South  Level Estimated
Tue 01:13:00 AM 34.8492 127.6128 167° South  Level Estimated
Tue 01:14:00 AM 34.8398 127.6153 167° South  Level Estimated

Login

Don't have an account? Register now (free) for customized features, flight alerts, and more!